sensor_id;sensor_type;location;lat;lon;timestamp;P1;durP1;ratioP1;P2;durP2;ratioP2
23728;SDS011;12045;60.214;24.724;2023-08-30T00:00:33;4.97;;;4.43;;
23728;SDS011;12045;60.214;24.724;2023-08-30T00:03:00;7.25;;;5.05;;
23728;SDS011;12045;60.214;24.724;2023-08-30T00:05:28;8.15;;;4.88;;
23728;SDS011;12045;60.214;24.724;2023-08-30T00:07:55;8.25;;;4.97;;
23728;SDS011;12045;60.214;24.724;2023-08-30T00:10:23;6.45;;;4.72;;
23728;SDS011;12045;60.214;24.724;2023-08-30T00:12:50;8.63;;;5.10;;
23728;SDS011;12045;60.214;24.724;2023-08-30T00:15:18;7.90;;;4.90;;
23728;SDS011;12045;60.214;24.724;2023-08-30T00:17:46;7.88;;;5.30;;
23728;SDS011;12045;60.214;24.724;2023-08-30T00:20:13;5.82;;;4.20;;
23728;SDS011;12045;60.214;24.724;2023-08-30T00:22:42;5.47;;;4.90;;
23728;SDS011;12045;60.214;24.724;2023-08-30T00:25:09;5.88;;;4.72;;
23728;SDS011;12045;60.214;24.724;2023-08-30T00:27:37;6.28;;;4.63;;
23728;SDS011;12045;60.214;24.724;2023-08-30T00:30:05;9.10;;;5.68;;
23728;SDS011;12045;60.214;24.724;2023-08-30T00:32:35;6.78;;;4.78;;
23728;SDS011;12045;60.214;24.724;2023-08-30T00:35:03;7.32;;;4.80;;
23728;SDS011;12045;60.214;24.724;2023-08-30T00:37:31;7.90;;;5.20;;
23728;SDS011;12045;60.214;24.724;2023-08-30T00:39:58;10.07;;;5.55;;
23728;SDS011;12045;60.214;24.724;2023-08-30T00:42:26;8.45;;;5.35;;
23728;SDS011;12045;60.214;24.724;2023-08-30T00:44:56;9.68;;;5.93;;
23728;SDS011;12045;60.214;24.724;2023-08-30T00:47:24;8.90;;;5.97;;
23728;SDS011;12045;60.214;24.724;2023-08-30T00:49:51;8.40;;;5.50;;
23728;SDS011;12045;60.214;24.724;2023-08-30T00:52:19;8.98;;;6.28;;
23728;SDS011;12045;60.214;24.724;2023-08-30T00:54:47;9.50;;;5.82;;
23728;SDS011;12045;60.214;24.724;2023-08-30T00:57:16;11.10;;;6.93;;
23728;SDS011;12045;60.214;24.724;2023-08-30T00:59:43;10.43;;;6.45;;
23728;SDS011;12045;60.214;24.724;2023-08-30T01:02:11;10.07;;;5.68;;
23728;SDS011;12045;60.214;24.724;2023-08-30T01:04:39;6.47;;;4.60;;
23728;SDS011;12045;60.214;24.724;2023-08-30T01:07:07;6.60;;;4.13;;
23728;SDS011;12045;60.214;24.724;2023-08-30T01:09:35;6.68;;;3.90;;
23728;SDS011;12045;60.214;24.724;2023-08-30T01:12:20;6.53;;;3.55;;
23728;SDS011;12045;60.214;24.724;2023-08-30T01:15:09;6.18;;;4.30;;
23728;SDS011;12045;60.214;24.724;2023-08-30T01:17:47;5.35;;;4.13;;
23728;SDS011;12045;60.214;24.724;2023-08-30T01:20:15;4.93;;;3.63;;
23728;SDS011;12045;60.214;24.724;2023-08-30T01:22:50;8.05;;;4.60;;
23728;SDS011;12045;60.214;24.724;2023-08-30T01:25:57;7.18;;;5.38;;
23728;SDS011;12045;60.214;24.724;2023-08-30T01:28:41;6.60;;;5.10;;
23728;SDS011;12045;60.214;24.724;2023-08-30T01:31:08;7.40;;;4.47;;
23728;SDS011;12045;60.214;24.724;2023-08-30T01:33:39;8.95;;;5.03;;
23728;SDS011;12045;60.214;24.724;2023-08-30T01:36:08;12.75;;;5.43;;
23728;SDS011;12045;60.214;24.724;2023-08-30T01:38:36;7.47;;;4.25;;
23728;SDS011;12045;60.214;24.724;2023-08-30T01:41:04;7.30;;;4.43;;
23728;SDS011;12045;60.214;24.724;2023-08-30T01:43:32;5.25;;;3.83;;
23728;SDS011;12045;60.214;24.724;2023-08-30T01:46:00;10.35;;;5.18;;
23728;SDS011;12045;60.214;24.724;2023-08-30T01:48:32;6.95;;;4.28;;
23728;SDS011;12045;60.214;24.724;2023-08-30T01:51:01;6.25;;;4.60;;
23728;SDS011;12045;60.214;24.724;2023-08-30T01:53:30;6.45;;;4.28;;
23728;SDS011;12045;60.214;24.724;2023-08-30T01:55:59;5.65;;;4.35;;
23728;SDS011;12045;60.214;24.724;2023-08-30T01:58:26;8.25;;;5.10;;
23728;SDS011;12045;60.214;24.724;2023-08-30T02:00:54;7.25;;;4.72;;
23728;SDS011;12045;60.214;24.724;2023-08-30T02:03:22;8.93;;;5.35;;
23728;SDS011;12045;60.214;24.724;2023-08-30T02:06:25;6.25;;;4.85;;
23728;SDS011;12045;60.214;24.724;2023-08-30T02:09:02;8.43;;;5.30;;
23728;SDS011;12045;60.214;24.724;2023-08-30T02:11:44;8.55;;;5.63;;
23728;SDS011;12045;60.214;24.724;2023-08-30T02:14:14;6.70;;;5.18;;
23728;SDS011;12045;60.214;24.724;2023-08-30T02:16:45;8.45;;;5.70;;
23728;SDS011;12045;60.214;24.724;2023-08-30T02:19:14;8.30;;;4.90;;
23728;SDS011;12045;60.214;24.724;2023-08-30T02:21:48;10.93;;;4.68;;
23728;SDS011;12045;60.214;24.724;2023-08-30T02:24:16;8.50;;;4.70;;
23728;SDS011;12045;60.214;24.724;2023-08-30T02:26:43;8.02;;;5.70;;
23728;SDS011;12045;60.214;24.724;2023-08-30T02:29:11;7.65;;;5.47;;
23728;SDS011;12045;60.214;24.724;2023-08-30T02:31:40;8.65;;;4.97;;
23728;SDS011;12045;60.214;24.724;2023-08-30T02:34:07;10.45;;;5.57;;
23728;SDS011;12045;60.214;24.724;2023-08-30T02:36:35;10.57;;;6.60;;
23728;SDS011;12045;60.214;24.724;2023-08-30T02:39:05;10.45;;;6.18;;
23728;SDS011;12045;60.214;24.724;2023-08-30T02:41:33;10.75;;;6.50;;
23728;SDS011;12045;60.214;24.724;2023-08-30T02:44:01;12.80;;;7.18;;
23728;SDS011;12045;60.214;24.724;2023-08-30T02:46:29;10.32;;;6.85;;
23728;SDS011;12045;60.214;24.724;2023-08-30T02:48:57;11.20;;;7.07;;
23728;SDS011;12045;60.214;24.724;2023-08-30T02:51:24;14.93;;;6.90;;
23728;SDS011;12045;60.214;24.724;2023-08-30T02:53:51;10.93;;;6.20;;
23728;SDS011;12045;60.214;24.724;2023-08-30T02:56:19;11.65;;;6.15;;
23728;SDS011;12045;60.214;24.724;2023-08-30T02:58:47;10.55;;;6.30;;
23728;SDS011;12045;60.214;24.724;2023-08-30T03:01:15;7.60;;;5.40;;
23728;SDS011;12045;60.214;24.724;2023-08-30T03:03:42;9.27;;;6.38;;
23728;SDS011;12045;60.214;24.724;2023-08-30T03:06:10;10.70;;;6.07;;
23728;SDS011;12045;60.214;24.724;2023-08-30T03:08:38;14.27;;;8.52;;
23728;SDS011;12045;60.214;24.724;2023-08-30T03:11:09;14.43;;;8.07;;
23728;SDS011;12045;60.214;24.724;2023-08-30T03:13:40;12.00;;;7.18;;
23728;SDS011;12045;60.214;24.724;2023-08-30T03:16:15;12.15;;;8.02;;
23728;SDS011;12045;60.214;24.724;2023-08-30T03:18:44;17.83;;;9.43;;
23728;SDS011;12045;60.214;24.724;2023-08-30T03:21:12;14.45;;;8.48;;
23728;SDS011;12045;60.214;24.724;2023-08-30T03:23:40;14.85;;;8.63;;
23728;SDS011;12045;60.214;24.724;2023-08-30T03:26:12;12.38;;;7.57;;
23728;SDS011;12045;60.214;24.724;2023-08-30T03:28:41;14.07;;;8.05;;
23728;SDS011;12045;60.214;24.724;2023-08-30T03:31:16;14.85;;;8.60;;
23728;SDS011;12045;60.214;24.724;2023-08-30T03:33:48;13.43;;;8.60;;
23728;SDS011;12045;60.214;24.724;2023-08-30T03:36:16;13.50;;;7.97;;
23728;SDS011;12045;60.214;24.724;2023-08-30T03:38:45;16.88;;;8.60;;
23728;SDS011;12045;60.214;24.724;2023-08-30T03:41:13;15.80;;;9.45;;
23728;SDS011;12045;60.214;24.724;2023-08-30T03:43:41;14.23;;;9.23;;
23728;SDS011;12045;60.214;24.724;2023-08-30T03:46:08;17.45;;;9.50;;
23728;SDS011;12045;60.214;24.724;2023-08-30T03:48:39;17.52;;;9.07;;
23728;SDS011;12045;60.214;24.724;2023-08-30T03:51:06;16.55;;;9.82;;
23728;SDS011;12045;60.214;24.724;2023-08-30T03:53:34;17.52;;;9.90;;
23728;SDS011;12045;60.214;24.724;2023-08-30T03:56:01;19.83;;;10.55;;
23728;SDS011;12045;60.214;24.724;2023-08-30T03:58:33;16.50;;;9.32;;
23728;SDS011;12045;60.214;24.724;2023-08-30T04:01:01;18.30;;;10.32;;
23728;SDS011;12045;60.214;24.724;2023-08-30T04:03:29;14.10;;;9.07;;
23728;SDS011;12045;60.214;24.724;2023-08-30T04:05:57;15.55;;;8.68;;
23728;SDS011;12045;60.214;24.724;2023-08-30T04:08:24;14.52;;;9.35;;
23728;SDS011;12045;60.214;24.724;2023-08-30T04:10:52;15.70;;;9.00;;
23728;SDS011;12045;60.214;24.724;2023-08-30T04:13:20;15.55;;;8.65;;
23728;SDS011;12045;60.214;24.724;2023-08-30T04:15:48;15.73;;;8.23;;
23728;SDS011;12045;60.214;24.724;2023-08-30T04:18:16;13.82;;;8.35;;
23728;SDS011;12045;60.214;24.724;2023-08-30T04:20:44;14.07;;;8.38;;
23728;SDS011;12045;60.214;24.724;2023-08-30T04:23:13;11.68;;;7.28;;
23728;SDS011;12045;60.214;24.724;2023-08-30T04:25:40;14.60;;;7.90;;
23728;SDS011;12045;60.214;24.724;2023-08-30T04:28:10;13.75;;;8.52;;
23728;SDS011;12045;60.214;24.724;2023-08-30T04:30:39;14.02;;;8.02;;
23728;SDS011;12045;60.214;24.724;2023-08-30T04:33:06;11.30;;;7.70;;
23728;SDS011;12045;60.214;24.724;2023-08-30T04:35:34;12.05;;;8.25;;
23728;SDS011;12045;60.214;24.724;2023-08-30T04:38:02;11.43;;;8.02;;
23728;SDS011;12045;60.214;24.724;2023-08-30T04:40:31;11.77;;;8.18;;
23728;SDS011;12045;60.214;24.724;2023-08-30T04:42:59;12.05;;;7.38;;
23728;SDS011;12045;60.214;24.724;2023-08-30T04:45:28;11.50;;;7.93;;
23728;SDS011;12045;60.214;24.724;2023-08-30T04:47:56;10.52;;;7.75;;
23728;SDS011;12045;60.214;24.724;2023-08-30T04:50:25;11.00;;;7.85;;
23728;SDS011;12045;60.214;24.724;2023-08-30T04:52:54;13.38;;;8.48;;
23728;SDS011;12045;60.214;24.724;2023-08-30T04:55:25;13.75;;;7.85;;
23728;SDS011;12045;60.214;24.724;2023-08-30T04:57:56;12.73;;;8.50;;
23728;SDS011;12045;60.214;24.724;2023-08-30T05:00:25;14.23;;;7.97;;
23728;SDS011;12045;60.214;24.724;2023-08-30T05:02:54;13.27;;;8.70;;
23728;SDS011;12045;60.214;24.724;2023-08-30T05:05:22;14.95;;;9.20;;
23728;SDS011;12045;60.214;24.724;2023-08-30T05:07:50;13.52;;;8.65;;
23728;SDS011;12045;60.214;24.724;2023-08-30T05:10:17;13.07;;;8.25;;
23728;SDS011;12045;60.214;24.724;2023-08-30T05:12:45;17.50;;;8.85;;
23728;SDS011;12045;60.214;24.724;2023-08-30T05:15:19;13.23;;;8.88;;
23728;SDS011;12045;60.214;24.724;2023-08-30T05:17:48;14.93;;;9.05;;
23728;SDS011;12045;60.214;24.724;2023-08-30T05:20:16;13.23;;;8.82;;
23728;SDS011;12045;60.214;24.724;2023-08-30T05:22:45;13.48;;;9.65;;
23728;SDS011;12045;60.214;24.724;2023-08-30T05:25:13;16.02;;;10.15;;
23728;SDS011;12045;60.214;24.724;2023-08-30T05:27:41;13.18;;;8.68;;
23728;SDS011;12045;60.214;24.724;2023-08-30T05:30:10;17.38;;;9.85;;
23728;SDS011;12045;60.214;24.724;2023-08-30T05:32:38;15.43;;;10.35;;
23728;SDS011;12045;60.214;24.724;2023-08-30T05:35:08;14.38;;;9.27;;
23728;SDS011;12045;60.214;24.724;2023-08-30T05:37:36;17.52;;;9.48;;
23728;SDS011;12045;60.214;24.724;2023-08-30T05:40:03;13.40;;;9.10;;
23728;SDS011;12045;60.214;24.724;2023-08-30T05:42:33;15.65;;;10.02;;
23728;SDS011;12045;60.214;24.724;2023-08-30T05:45:00;17.95;;;10.43;;
23728;SDS011;12045;60.214;24.724;2023-08-30T05:47:30;17.38;;;10.27;;
23728;SDS011;12045;60.214;24.724;2023-08-30T05:49:57;17.55;;;10.15;;
23728;SDS011;12045;60.214;24.724;2023-08-30T05:52:26;16.35;;;9.63;;
23728;SDS011;12045;60.214;24.724;2023-08-30T05:54:53;13.35;;;8.88;;
23728;SDS011;12045;60.214;24.724;2023-08-30T05:57:22;12.93;;;9.50;;
23728;SDS011;12045;60.214;24.724;2023-08-30T05:59:52;13.20;;;8.95;;
23728;SDS011;12045;60.214;24.724;2023-08-30T06:02:20;13.25;;;9.35;;
23728;SDS011;12045;60.214;24.724;2023-08-30T06:04:47;12.88;;;9.18;;
23728;SDS011;12045;60.214;24.724;2023-08-30T06:07:15;12.68;;;8.98;;
23728;SDS011;12045;60.214;24.724;2023-08-30T06:09:44;13.98;;;8.98;;
23728;SDS011;12045;60.214;24.724;2023-08-30T06:12:11;15.18;;;9.70;;
23728;SDS011;12045;60.214;24.724;2023-08-30T06:14:39;15.52;;;9.07;;
23728;SDS011;12045;60.214;24.724;2023-08-30T06:17:06;12.75;;;8.80;;
23728;SDS011;12045;60.214;24.724;2023-08-30T06:19:36;14.00;;;8.82;;
23728;SDS011;12045;60.214;24.724;2023-08-30T06:22:03;14.50;;;8.52;;
23728;SDS011;12045;60.214;24.724;2023-08-30T06:24:30;14.15;;;8.52;;
23728;SDS011;12045;60.214;24.724;2023-08-30T06:26:58;10.55;;;7.68;;
23728;SDS011;12045;60.214;24.724;2023-08-30T06:29:26;13.93;;;8.60;;
23728;SDS011;12045;60.214;24.724;2023-08-30T06:31:54;12.25;;;8.77;;
23728;SDS011;12045;60.214;24.724;2023-08-30T06:34:21;13.82;;;9.23;;
23728;SDS011;12045;60.214;24.724;2023-08-30T06:36:49;13.00;;;8.27;;
23728;SDS011;12045;60.214;24.724;2023-08-30T06:39:19;14.23;;;8.13;;
23728;SDS011;12045;60.214;24.724;2023-08-30T06:41:47;15.52;;;8.07;;
23728;SDS011;12045;60.214;24.724;2023-08-30T06:44:16;12.63;;;8.32;;
23728;SDS011;12045;60.214;24.724;2023-08-30T06:46:44;13.75;;;8.13;;
23728;SDS011;12045;60.214;24.724;2023-08-30T06:49:12;16.25;;;8.77;;
23728;SDS011;12045;60.214;24.724;2023-08-30T06:51:40;13.25;;;7.90;;
23728;SDS011;12045;60.214;24.724;2023-08-30T06:54:07;14.05;;;7.50;;
23728;SDS011;12045;60.214;24.724;2023-08-30T06:56:35;13.98;;;8.45;;
23728;SDS011;12045;60.214;24.724;2023-08-30T06:59:02;12.43;;;8.45;;
23728;SDS011;12045;60.214;24.724;2023-08-30T07:01:30;14.18;;;8.70;;
23728;SDS011;12045;60.214;24.724;2023-08-30T07:04:02;12.68;;;8.27;;
23728;SDS011;12045;60.214;24.724;2023-08-30T07:06:29;11.85;;;8.68;;
23728;SDS011;12045;60.214;24.724;2023-08-30T07:08:58;14.02;;;8.82;;
23728;SDS011;12045;60.214;24.724;2023-08-30T07:11:27;11.73;;;8.63;;
23728;SDS011;12045;60.214;24.724;2023-08-30T07:14:00;12.57;;;8.52;;
23728;SDS011;12045;60.214;24.724;2023-08-30T07:16:29;10.38;;;7.20;;
23728;SDS011;12045;60.214;24.724;2023-08-30T07:18:58;13.65;;;6.88;;
23728;SDS011;12045;60.214;24.724;2023-08-30T07:21:26;12.77;;;6.10;;
23728;SDS011;12045;60.214;24.724;2023-08-30T07:23:55;9.93;;;6.28;;
23728;SDS011;12045;60.214;24.724;2023-08-30T07:26:22;9.77;;;6.10;;
23728;SDS011;12045;60.214;24.724;2023-08-30T07:28:50;13.50;;;6.00;;
23728;SDS011;12045;60.214;24.724;2023-08-30T07:31:18;9.57;;;5.90;;
23728;SDS011;12045;60.214;24.724;2023-08-30T07:33:49;12.25;;;5.95;;
23728;SDS011;12045;60.214;24.724;2023-08-30T07:36:17;10.40;;;6.20;;
23728;SDS011;12045;60.214;24.724;2023-08-30T07:38:45;8.60;;;5.75;;
23728;SDS011;12045;60.214;24.724;2023-08-30T07:41:12;14.07;;;6.30;;
23728;SDS011;12045;60.214;24.724;2023-08-30T07:43:40;10.57;;;5.63;;
23728;SDS011;12045;60.214;24.724;2023-08-30T07:46:08;13.57;;;6.10;;
23728;SDS011;12045;60.214;24.724;2023-08-30T07:48:45;13.75;;;5.80;;
23728;SDS011;12045;60.214;24.724;2023-08-30T07:51:15;16.45;;;6.00;;
23728;SDS011;12045;60.214;24.724;2023-08-30T07:53:42;11.10;;;6.13;;
23728;SDS011;12045;60.214;24.724;2023-08-30T07:56:10;10.60;;;5.78;;
23728;SDS011;12045;60.214;24.724;2023-08-30T07:58:38;11.07;;;5.95;;
23728;SDS011;12045;60.214;24.724;2023-08-30T08:01:07;11.13;;;5.97;;
23728;SDS011;12045;60.214;24.724;2023-08-30T08:03:35;9.85;;;5.45;;
23728;SDS011;12045;60.214;24.724;2023-08-30T08:06:11;6.60;;;5.25;;
23728;SDS011;12045;60.214;24.724;2023-08-30T08:08:39;10.65;;;5.57;;
23728;SDS011;12045;60.214;24.724;2023-08-30T08:11:06;7.50;;;5.28;;
23728;SDS011;12045;60.214;24.724;2023-08-30T08:13:33;5.95;;;5.10;;
23728;SDS011;12045;60.214;24.724;2023-08-30T08:16:01;8.85;;;5.60;;
23728;SDS011;12045;60.214;24.724;2023-08-30T08:18:29;8.73;;;4.82;;
23728;SDS011;12045;60.214;24.724;2023-08-30T08:20:56;5.57;;;4.95;;
23728;SDS011;12045;60.214;24.724;2023-08-30T08:26:21;7.45;;;4.03;;
23728;SDS011;12045;60.214;24.724;2023-08-30T08:29:19;7.28;;;4.57;;
23728;SDS011;12045;60.214;24.724;2023-08-30T08:31:47;7.20;;;4.20;;
23728;SDS011;12045;60.214;24.724;2023-08-30T08:34:17;6.30;;;4.57;;
23728;SDS011;12045;60.214;24.724;2023-08-30T08:36:57;5.20;;;4.50;;
23728;SDS011;12045;60.214;24.724;2023-08-30T08:39:25;6.05;;;4.45;;
23728;SDS011;12045;60.214;24.724;2023-08-30T08:41:56;5.20;;;4.20;;
23728;SDS011;12045;60.214;24.724;2023-08-30T08:44:31;7.95;;;4.70;;
23728;SDS011;12045;60.214;24.724;2023-08-30T08:47:00;7.30;;;4.10;;
23728;SDS011;12045;60.214;24.724;2023-08-30T08:49:31;5.50;;;4.22;;
23728;SDS011;12045;60.214;24.724;2023-08-30T08:52:00;6.10;;;4.57;;
23728;SDS011;12045;60.214;24.724;2023-08-30T08:54:45;6.13;;;4.18;;
23728;SDS011;12045;60.214;24.724;2023-08-30T08:57:13;5.85;;;4.28;;
23728;SDS011;12045;60.214;24.724;2023-08-30T08:59:41;7.47;;;4.40;;
23728;SDS011;12045;60.214;24.724;2023-08-30T09:02:08;6.32;;;4.22;;
23728;SDS011;12045;60.214;24.724;2023-08-30T09:04:39;6.47;;;4.05;;
23728;SDS011;12045;60.214;24.724;2023-08-30T09:07:07;4.18;;;3.78;;
23728;SDS011;12045;60.214;24.724;2023-08-30T09:09:35;5.40;;;4.18;;
23728;SDS011;12045;60.214;24.724;2023-08-30T09:12:04;6.97;;;4.40;;
23728;SDS011;12045;60.214;24.724;2023-08-30T09:14:32;5.60;;;3.80;;
23728;SDS011;12045;60.214;24.724;2023-08-30T09:17:00;5.72;;;3.92;;
23728;SDS011;12045;60.214;24.724;2023-08-30T09:19:29;4.75;;;3.88;;
23728;SDS011;12045;60.214;24.724;2023-08-30T09:21:58;5.32;;;4.20;;
23728;SDS011;12045;60.214;24.724;2023-08-30T09:24:40;6.07;;;4.30;;
23728;SDS011;12045;60.214;24.724;2023-08-30T09:27:08;6.32;;;3.85;;
23728;SDS011;12045;60.214;24.724;2023-08-30T09:29:35;5.60;;;3.88;;
23728;SDS011;12045;60.214;24.724;2023-08-30T09:32:03;7.05;;;3.85;;
23728;SDS011;12045;60.214;24.724;2023-08-30T09:34:31;8.23;;;4.15;;
23728;SDS011;12045;60.214;24.724;2023-08-30T09:36:59;4.05;;;3.63;;
23728;SDS011;12045;60.214;24.724;2023-08-30T09:39:32;5.43;;;3.83;;
23728;SDS011;12045;60.214;24.724;2023-08-30T09:42:00;5.07;;;4.25;;
23728;SDS011;12045;60.214;24.724;2023-08-30T09:44:29;6.35;;;4.05;;
23728;SDS011;12045;60.214;24.724;2023-08-30T09:46:57;5.55;;;4.30;;
23728;SDS011;12045;60.214;24.724;2023-08-30T09:49:26;6.57;;;4.57;;
23728;SDS011;12045;60.214;24.724;2023-08-30T09:51:54;10.60;;;4.47;;
23728;SDS011;12045;60.214;24.724;2023-08-30T09:54:24;5.47;;;4.25;;
23728;SDS011;12045;60.214;24.724;2023-08-30T09:56:59;6.55;;;4.63;;
23728;SDS011;12045;60.214;24.724;2023-08-30T09:59:32;7.13;;;4.65;;
23728;SDS011;12045;60.214;24.724;2023-08-30T10:02:00;6.40;;;4.45;;
23728;SDS011;12045;60.214;24.724;2023-08-30T10:04:28;6.43;;;4.60;;
23728;SDS011;12045;60.214;24.724;2023-08-30T10:06:56;5.50;;;4.72;;
23728;SDS011;12045;60.214;24.724;2023-08-30T10:09:25;8.70;;;4.93;;
23728;SDS011;12045;60.214;24.724;2023-08-30T10:11:55;7.07;;;4.35;;
23728;SDS011;12045;60.214;24.724;2023-08-30T10:14:26;7.47;;;4.72;;
23728;SDS011;12045;60.214;24.724;2023-08-30T10:16:58;9.38;;;5.40;;
23728;SDS011;12045;60.214;24.724;2023-08-30T10:19:30;8.93;;;5.13;;
23728;SDS011;12045;60.214;24.724;2023-08-30T10:22:05;9.07;;;5.25;;
23728;SDS011;12045;60.214;24.724;2023-08-30T10:27:39;9.57;;;5.00;;
23728;SDS011;12045;60.214;24.724;2023-08-30T10:30:11;15.45;;;5.72;;
23728;SDS011;12045;60.214;24.724;2023-08-30T10:32:54;10.00;;;5.07;;
23728;SDS011;12045;60.214;24.724;2023-08-30T10:35:26;8.88;;;5.38;;
23728;SDS011;12045;60.214;24.724;2023-08-30T10:37:59;13.57;;;5.38;;
23728;SDS011;12045;60.214;24.724;2023-08-30T10:40:28;12.40;;;5.15;;
23728;SDS011;12045;60.214;24.724;2023-08-30T10:43:05;12.07;;;5.55;;
23728;SDS011;12045;60.214;24.724;2023-08-30T10:45:32;10.48;;;5.07;;
23728;SDS011;12045;60.214;24.724;2023-08-30T10:48:00;9.95;;;5.10;;
23728;SDS011;12045;60.214;24.724;2023-08-30T10:50:31;10.10;;;5.18;;
23728;SDS011;12045;60.214;24.724;2023-08-30T10:53:01;7.70;;;4.43;;
23728;SDS011;12045;60.214;24.724;2023-08-30T10:55:28;8.70;;;4.03;;
23728;SDS011;12045;60.214;24.724;2023-08-30T10:57:58;6.25;;;4.40;;
23728;SDS011;12045;60.214;24.724;2023-08-30T11:00:32;8.95;;;4.53;;
23728;SDS011;12045;60.214;24.724;2023-08-30T11:03:10;12.20;;;4.03;;
23728;SDS011;12045;60.214;24.724;2023-08-30T11:05:40;5.15;;;4.00;;
23728;SDS011;12045;60.214;24.724;2023-08-30T11:08:10;7.82;;;4.25;;
23728;SDS011;12045;60.214;24.724;2023-08-30T11:10:39;8.27;;;4.65;;
23728;SDS011;12045;60.214;24.724;2023-08-30T11:13:09;12.00;;;4.65;;
23728;SDS011;12045;60.214;24.724;2023-08-30T11:15:37;8.77;;;4.25;;
23728;SDS011;12045;60.214;24.724;2023-08-30T11:18:04;7.72;;;4.85;;
23728;SDS011;12045;60.214;24.724;2023-08-30T11:20:36;7.05;;;4.40;;
23728;SDS011;12045;60.214;24.724;2023-08-30T11:23:05;8.50;;;4.60;;
23728;SDS011;12045;60.214;24.724;2023-08-30T11:25:33;6.85;;;4.60;;
23728;SDS011;12045;60.214;24.724;2023-08-30T11:28:01;5.82;;;4.30;;
23728;SDS011;12045;60.214;24.724;2023-08-30T11:30:30;7.03;;;5.05;;
23728;SDS011;12045;60.214;24.724;2023-08-30T11:32:57;8.23;;;5.25;;
23728;SDS011;12045;60.214;24.724;2023-08-30T11:35:25;8.90;;;5.32;;
23728;SDS011;12045;60.214;24.724;2023-08-30T11:37:54;10.00;;;5.93;;
23728;SDS011;12045;60.214;24.724;2023-08-30T11:40:22;11.65;;;5.97;;
23728;SDS011;12045;60.214;24.724;2023-08-30T11:42:50;8.95;;;5.55;;
23728;SDS011;12045;60.214;24.724;2023-08-30T11:45:18;11.90;;;6.38;;
23728;SDS011;12045;60.214;24.724;2023-08-30T11:47:46;9.68;;;6.25;;
23728;SDS011;12045;60.214;24.724;2023-08-30T11:50:14;14.18;;;6.40;;
23728;SDS011;12045;60.214;24.724;2023-08-30T11:52:43;12.75;;;6.78;;
23728;SDS011;12045;60.214;24.724;2023-08-30T11:55:10;11.50;;;6.80;;
23728;SDS011;12045;60.214;24.724;2023-08-30T11:57:39;12.40;;;7.28;;
23728;SDS011;12045;60.214;24.724;2023-08-30T12:00:11;14.65;;;7.00;;
23728;SDS011;12045;60.214;24.724;2023-08-30T12:02:40;12.55;;;6.13;;
23728;SDS011;12045;60.214;24.724;2023-08-30T12:05:11;12.50;;;7.10;;
23728;SDS011;12045;60.214;24.724;2023-08-30T12:07:40;13.68;;;7.00;;
23728;SDS011;12045;60.214;24.724;2023-08-30T12:10:09;11.95;;;7.20;;
23728;SDS011;12045;60.214;24.724;2023-08-30T12:12:43;11.48;;;7.13;;
23728;SDS011;12045;60.214;24.724;2023-08-30T12:15:12;15.13;;;7.28;;
23728;SDS011;12045;60.214;24.724;2023-08-30T12:17:41;11.65;;;6.90;;
23728;SDS011;12045;60.214;24.724;2023-08-30T12:20:15;13.10;;;7.63;;
23728;SDS011;12045;60.214;24.724;2023-08-30T12:22:44;15.50;;;7.57;;
23728;SDS011;12045;60.214;24.724;2023-08-30T12:25:15;12.02;;;7.15;;
23728;SDS011;12045;60.214;24.724;2023-08-30T12:27:46;11.85;;;6.65;;
23728;SDS011;12045;60.214;24.724;2023-08-30T12:30:15;15.50;;;7.38;;
23728;SDS011;12045;60.214;24.724;2023-08-30T12:32:43;16.33;;;7.40;;
23728;SDS011;12045;60.214;24.724;2023-08-30T12:35:12;14.20;;;7.25;;
23728;SDS011;12045;60.214;24.724;2023-08-30T12:37:41;15.05;;;7.03;;
23728;SDS011;12045;60.214;24.724;2023-08-30T12:40:09;13.77;;;7.47;;
23728;SDS011;12045;60.214;24.724;2023-08-30T12:42:36;14.45;;;7.15;;
23728;SDS011;12045;60.214;24.724;2023-08-30T12:45:05;15.48;;;7.60;;
23728;SDS011;12045;60.214;24.724;2023-08-30T12:47:34;13.80;;;7.10;;
23728;SDS011;12045;60.214;24.724;2023-08-30T12:50:03;15.18;;;7.57;;
23728;SDS011;12045;60.214;24.724;2023-08-30T12:52:32;17.70;;;7.90;;
23728;SDS011;12045;60.214;24.724;2023-08-30T12:54:59;12.75;;;7.45;;
23728;SDS011;12045;60.214;24.724;2023-08-30T12:57:27;14.50;;;7.03;;
23728;SDS011;12045;60.214;24.724;2023-08-30T12:59:54;14.50;;;7.35;;
23728;SDS011;12045;60.214;24.724;2023-08-30T13:02:22;16.27;;;7.65;;
23728;SDS011;12045;60.214;24.724;2023-08-30T13:04:49;16.13;;;7.22;;
23728;SDS011;12045;60.214;24.724;2023-08-30T13:07:18;13.65;;;7.13;;
23728;SDS011;12045;60.214;24.724;2023-08-30T13:09:45;15.85;;;8.07;;
23728;SDS011;12045;60.214;24.724;2023-08-30T13:12:13;15.50;;;7.25;;
23728;SDS011;12045;60.214;24.724;2023-08-30T13:14:41;14.93;;;7.22;;
23728;SDS011;12045;60.214;24.724;2023-08-30T13:17:08;14.85;;;7.07;;
23728;SDS011;12045;60.214;24.724;2023-08-30T13:19:35;14.40;;;8.00;;
23728;SDS011;12045;60.214;24.724;2023-08-30T13:22:03;16.20;;;7.32;;
23728;SDS011;12045;60.214;24.724;2023-08-30T13:24:31;15.98;;;7.47;;
23728;SDS011;12045;60.214;24.724;2023-08-30T13:27:00;16.00;;;6.78;;
23728;SDS011;12045;60.214;24.724;2023-08-30T13:29:30;18.45;;;7.45;;
23728;SDS011;12045;60.214;24.724;2023-08-30T13:31:58;14.65;;;7.40;;
23728;SDS011;12045;60.214;24.724;2023-08-30T13:34:27;14.90;;;7.45;;
23728;SDS011;12045;60.214;24.724;2023-08-30T13:36:54;15.25;;;8.00;;
23728;SDS011;12045;60.214;24.724;2023-08-30T13:39:22;13.88;;;7.22;;
23728;SDS011;12045;60.214;24.724;2023-08-30T13:41:50;16.23;;;8.10;;
23728;SDS011;12045;60.214;24.724;2023-08-30T13:44:17;14.00;;;7.45;;
23728;SDS011;12045;60.214;24.724;2023-08-30T13:46:45;15.10;;;7.45;;
23728;SDS011;12045;60.214;24.724;2023-08-30T13:49:16;14.40;;;7.70;;
23728;SDS011;12045;60.214;24.724;2023-08-30T13:51:45;13.32;;;7.22;;
23728;SDS011;12045;60.214;24.724;2023-08-30T13:54:12;13.27;;;7.05;;
23728;SDS011;12045;60.214;24.724;2023-08-30T13:56:40;12.77;;;6.00;;
23728;SDS011;12045;60.214;24.724;2023-08-30T13:59:08;12.02;;;6.20;;
23728;SDS011;12045;60.214;24.724;2023-08-30T14:01:36;10.75;;;5.50;;
23728;SDS011;12045;60.214;24.724;2023-08-30T14:04:04;11.98;;;6.05;;
23728;SDS011;12045;60.214;24.724;2023-08-30T14:06:33;12.63;;;6.25;;
23728;SDS011;12045;60.214;24.724;2023-08-30T14:09:01;12.85;;;6.05;;
23728;SDS011;12045;60.214;24.724;2023-08-30T14:11:32;14.75;;;6.28;;
23728;SDS011;12045;60.214;24.724;2023-08-30T14:14:00;13.60;;;5.55;;
23728;SDS011;12045;60.214;24.724;2023-08-30T14:16:29;14.20;;;6.03;;
23728;SDS011;12045;60.214;24.724;2023-08-30T14:18:57;14.05;;;6.03;;
23728;SDS011;12045;60.214;24.724;2023-08-30T14:21:27;13.27;;;5.88;;
23728;SDS011;12045;60.214;24.724;2023-08-30T14:23:54;16.15;;;5.68;;
23728;SDS011;12045;60.214;24.724;2023-08-30T14:26:21;9.15;;;4.82;;
23728;SDS011;12045;60.214;24.724;2023-08-30T14:28:49;12.10;;;5.80;;
23728;SDS011;12045;60.214;24.724;2023-08-30T14:31:17;9.80;;;4.70;;
23728;SDS011;12045;60.214;24.724;2023-08-30T14:33:45;11.73;;;4.63;;
23728;SDS011;12045;60.214;24.724;2023-08-30T14:36:13;8.38;;;4.75;;
23728;SDS011;12045;60.214;24.724;2023-08-30T14:38:42;9.07;;;4.32;;
23728;SDS011;12045;60.214;24.724;2023-08-30T14:41:10;8.95;;;4.20;;
23728;SDS011;12045;60.214;24.724;2023-08-30T14:43:39;11.05;;;4.57;;